sensor_id;sensor_type;location;lat;lon;timestamp;P1;durP1;ratioP1;P2;durP2;ratioP2
39242;SDS011;29823;47.404;8.566;2024-02-15T00:00:01;5.60;;;2.05;;
39242;SDS011;29823;47.404;8.566;2024-02-15T00:02:30;6.22;;;2.05;;
39242;SDS011;29823;47.404;8.566;2024-02-15T00:04:59;4.93;;;2.10;;
39242;SDS011;29823;47.404;8.566;2024-02-15T00:07:27;7.15;;;2.10;;
39242;SDS011;29823;47.404;8.566;2024-02-15T00:09:55;7.25;;;1.98;;
39242;SDS011;29823;47.404;8.566;2024-02-15T00:12:22;4.80;;;1.98;;
39242;SDS011;29823;47.404;8.566;2024-02-15T00:14:50;3.42;;;1.75;;
39242;SDS011;29823;47.404;8.566;2024-02-15T00:17:18;2.95;;;2.05;;
39242;SDS011;29823;47.404;8.566;2024-02-15T00:19:46;5.40;;;1.98;;
39242;SDS011;29823;47.404;8.566;2024-02-15T00:22:15;3.90;;;2.22;;
39242;SDS011;29823;47.404;8.566;2024-02-15T00:24:43;6.25;;;2.15;;
39242;SDS011;29823;47.404;8.566;2024-02-15T00:27:11;3.53;;;1.90;;
39242;SDS011;29823;47.404;8.566;2024-02-15T00:29:39;2.85;;;1.52;;
39242;SDS011;29823;47.404;8.566;2024-02-15T00:32:07;6.10;;;2.05;;
39242;SDS011;29823;47.404;8.566;2024-02-15T00:34:37;4.45;;;2.13;;
39242;SDS011;29823;47.404;8.566;2024-02-15T00:37:05;5.70;;;2.08;;
39242;SDS011;29823;47.404;8.566;2024-02-15T00:39:34;4.03;;;1.83;;
39242;SDS011;29823;47.404;8.566;2024-02-15T00:42:02;4.53;;;2.22;;
39242;SDS011;29823;47.404;8.566;2024-02-15T00:44:30;6.10;;;2.65;;
39242;SDS011;29823;47.404;8.566;2024-02-15T00:46:58;3.97;;;2.33;;
39242;SDS011;29823;47.404;8.566;2024-02-15T00:49:25;4.20;;;2.17;;
39242;SDS011;29823;47.404;8.566;2024-02-15T00:51:54;5.20;;;2.50;;
39242;SDS011;29823;47.404;8.566;2024-02-15T00:54:22;6.28;;;2.25;;
39242;SDS011;29823;47.404;8.566;2024-02-15T00:56:51;4.82;;;2.40;;
39242;SDS011;29823;47.404;8.566;2024-02-15T00:59:19;5.00;;;2.70;;
39242;SDS011;29823;47.404;8.566;2024-02-15T01:01:47;5.78;;;2.22;;
39242;SDS011;29823;47.404;8.566;2024-02-15T01:04:14;6.63;;;2.90;;
39242;SDS011;29823;47.404;8.566;2024-02-15T01:06:42;5.38;;;2.35;;
39242;SDS011;29823;47.404;8.566;2024-02-15T01:09:10;5.10;;;2.50;;
39242;SDS011;29823;47.404;8.566;2024-02-15T01:11:39;8.38;;;4.05;;
39242;SDS011;29823;47.404;8.566;2024-02-15T01:14:08;7.25;;;2.58;;
39242;SDS011;29823;47.404;8.566;2024-02-15T01:16:36;3.13;;;2.00;;
39242;SDS011;29823;47.404;8.566;2024-02-15T01:19:04;4.50;;;2.50;;
39242;SDS011;29823;47.404;8.566;2024-02-15T01:21:32;6.07;;;2.25;;
39242;SDS011;29823;47.404;8.566;2024-02-15T01:24:00;4.18;;;2.50;;
39242;SDS011;29823;47.404;8.566;2024-02-15T01:26:28;3.88;;;2.15;;
39242;SDS011;29823;47.404;8.566;2024-02-15T01:28:56;3.35;;;2.10;;
39242;SDS011;29823;47.404;8.566;2024-02-15T01:31:25;3.90;;;1.85;;
39242;SDS011;29823;47.404;8.566;2024-02-15T01:33:53;5.93;;;1.98;;
39242;SDS011;29823;47.404;8.566;2024-02-15T01:36:21;2.78;;;1.70;;
39242;SDS011;29823;47.404;8.566;2024-02-15T01:38:48;5.32;;;2.00;;
39242;SDS011;29823;47.404;8.566;2024-02-15T01:41:16;4.07;;;1.48;;
39242;SDS011;29823;47.404;8.566;2024-02-15T01:43:43;3.90;;;1.67;;
39242;SDS011;29823;47.404;8.566;2024-02-15T01:46:12;4.97;;;1.60;;
39242;SDS011;29823;47.404;8.566;2024-02-15T01:48:41;3.05;;;1.58;;
39242;SDS011;29823;47.404;8.566;2024-02-15T01:51:09;3.63;;;1.42;;
39242;SDS011;29823;47.404;8.566;2024-02-15T01:53:37;3.65;;;1.83;;
39242;SDS011;29823;47.404;8.566;2024-02-15T01:56:05;2.80;;;1.67;;
39242;SDS011;29823;47.404;8.566;2024-02-15T01:58:34;4.93;;;1.50;;
39242;SDS011;29823;47.404;8.566;2024-02-15T02:01:02;3.40;;;1.85;;
39242;SDS011;29823;47.404;8.566;2024-02-15T02:03:30;4.43;;;1.77;;
39242;SDS011;29823;47.404;8.566;2024-02-15T02:05:59;3.85;;;1.77;;
39242;SDS011;29823;47.404;8.566;2024-02-15T02:08:28;2.97;;;1.65;;
39242;SDS011;29823;47.404;8.566;2024-02-15T02:10:56;6.72;;;2.05;;
39242;SDS011;29823;47.404;8.566;2024-02-15T02:13:23;4.72;;;2.08;;
39242;SDS011;29823;47.404;8.566;2024-02-15T02:15:52;3.55;;;2.03;;
39242;SDS011;29823;47.404;8.566;2024-02-15T02:18:20;4.63;;;2.00;;
39242;SDS011;29823;47.404;8.566;2024-02-15T02:20:48;4.20;;;1.50;;
39242;SDS011;29823;47.404;8.566;2024-02-15T02:23:17;3.90;;;1.63;;
39242;SDS011;29823;47.404;8.566;2024-02-15T02:25:50;8.27;;;2.15;;
39242;SDS011;29823;47.404;8.566;2024-02-15T02:28:18;3.97;;;1.38;;
39242;SDS011;29823;47.404;8.566;2024-02-15T02:30:48;4.10;;;1.67;;
39242;SDS011;29823;47.404;8.566;2024-02-15T02:33:15;3.92;;;2.28;;
39242;SDS011;29823;47.404;8.566;2024-02-15T02:35:46;3.88;;;2.08;;
39242;SDS011;29823;47.404;8.566;2024-02-15T02:38:15;4.05;;;1.98;;
39242;SDS011;29823;47.404;8.566;2024-02-15T02:40:43;5.50;;;1.90;;
39242;SDS011;29823;47.404;8.566;2024-02-15T02:43:12;2.75;;;1.58;;
39242;SDS011;29823;47.404;8.566;2024-02-15T02:45:40;6.30;;;2.15;;
39242;SDS011;29823;47.404;8.566;2024-02-15T02:48:08;3.65;;;1.55;;
39242;SDS011;29823;47.404;8.566;2024-02-15T02:50:36;3.78;;;1.85;;
39242;SDS011;29823;47.404;8.566;2024-02-15T02:53:03;4.15;;;2.08;;
39242;SDS011;29823;47.404;8.566;2024-02-15T02:55:31;4.57;;;2.25;;
39242;SDS011;29823;47.404;8.566;2024-02-15T02:57:59;6.30;;;1.95;;
39242;SDS011;29823;47.404;8.566;2024-02-15T03:00:28;3.97;;;2.25;;
39242;SDS011;29823;47.404;8.566;2024-02-15T03:02:56;6.10;;;2.00;;
39242;SDS011;29823;47.404;8.566;2024-02-15T03:05:23;4.53;;;2.00;;
39242;SDS011;29823;47.404;8.566;2024-02-15T03:07:51;6.75;;;3.17;;
39242;SDS011;29823;47.404;8.566;2024-02-15T03:10:19;6.15;;;3.22;;
39242;SDS011;29823;47.404;8.566;2024-02-15T03:12:46;7.20;;;3.47;;
39242;SDS011;29823;47.404;8.566;2024-02-15T03:15:15;3.38;;;2.30;;
39242;SDS011;29823;47.404;8.566;2024-02-15T03:17:47;5.00;;;2.47;;
39242;SDS011;29823;47.404;8.566;2024-02-15T03:20:15;4.95;;;2.17;;
39242;SDS011;29823;47.404;8.566;2024-02-15T03:22:52;6.32;;;2.25;;
39242;SDS011;29823;47.404;8.566;2024-02-15T03:25:20;4.97;;;2.23;;
39242;SDS011;29823;47.404;8.566;2024-02-15T03:27:50;4.18;;;2.22;;
39242;SDS011;29823;47.404;8.566;2024-02-15T03:30:19;5.35;;;2.05;;
39242;SDS011;29823;47.404;8.566;2024-02-15T03:32:48;2.95;;;1.63;;
39242;SDS011;29823;47.404;8.566;2024-02-15T03:35:18;9.93;;;1.50;;
39242;SDS011;29823;47.404;8.566;2024-02-15T03:37:46;4.45;;;1.65;;
39242;SDS011;29823;47.404;8.566;2024-02-15T03:40:17;3.85;;;1.60;;
39242;SDS011;29823;47.404;8.566;2024-02-15T03:42:45;6.18;;;1.90;;
39242;SDS011;29823;47.404;8.566;2024-02-15T03:45:13;3.53;;;1.63;;
39242;SDS011;29823;47.404;8.566;2024-02-15T03:47:41;3.70;;;1.90;;
39242;SDS011;29823;47.404;8.566;2024-02-15T03:50:10;3.60;;;1.85;;
39242;SDS011;29823;47.404;8.566;2024-02-15T03:52:41;3.80;;;2.20;;
39242;SDS011;29823;47.404;8.566;2024-02-15T03:55:10;2.80;;;2.08;;
39242;SDS011;29823;47.404;8.566;2024-02-15T03:57:38;5.28;;;2.30;;
39242;SDS011;29823;47.404;8.566;2024-02-15T04:00:06;3.95;;;1.85;;
39242;SDS011;29823;47.404;8.566;2024-02-15T04:02:37;4.30;;;2.20;;
39242;SDS011;29823;47.404;8.566;2024-02-15T04:05:09;3.40;;;1.92;;
39242;SDS011;29823;47.404;8.566;2024-02-15T04:07:40;6.03;;;1.98;;
39242;SDS011;29823;47.404;8.566;2024-02-15T04:10:09;5.75;;;1.88;;
39242;SDS011;29823;47.404;8.566;2024-02-15T04:12:37;4.55;;;1.90;;
39242;SDS011;29823;47.404;8.566;2024-02-15T04:15:08;6.63;;;1.50;;
39242;SDS011;29823;47.404;8.566;2024-02-15T04:20:09;3.92;;;1.63;;
39242;SDS011;29823;47.404;8.566;2024-02-15T04:22:39;2.20;;;1.60;;
39242;SDS011;29823;47.404;8.566;2024-02-15T04:25:10;3.33;;;2.10;;
39242;SDS011;29823;47.404;8.566;2024-02-15T04:27:43;2.47;;;1.75;;
39242;SDS011;29823;47.404;8.566;2024-02-15T04:30:12;9.15;;;2.00;;
39242;SDS011;29823;47.404;8.566;2024-02-15T04:32:39;4.38;;;2.13;;
39242;SDS011;29823;47.404;8.566;2024-02-15T04:35:07;4.95;;;1.98;;
39242;SDS011;29823;47.404;8.566;2024-02-15T04:37:39;4.88;;;1.98;;
39242;SDS011;29823;47.404;8.566;2024-02-15T04:40:07;6.15;;;2.30;;
39242;SDS011;29823;47.404;8.566;2024-02-15T04:42:38;7.28;;;2.42;;
39242;SDS011;29823;47.404;8.566;2024-02-15T04:45:08;4.28;;;2.25;;
39242;SDS011;29823;47.404;8.566;2024-02-15T04:47:37;3.65;;;2.30;;
39242;SDS011;29823;47.404;8.566;2024-02-15T04:50:07;5.72;;;2.40;;
39242;SDS011;29823;47.404;8.566;2024-02-15T04:52:35;11.20;;;4.60;;
39242;SDS011;29823;47.404;8.566;2024-02-15T04:55:03;8.27;;;3.55;;
39242;SDS011;29823;47.404;8.566;2024-02-15T04:57:32;11.88;;;4.68;;
39242;SDS011;29823;47.404;8.566;2024-02-15T05:00:05;7.70;;;3.75;;
39242;SDS011;29823;47.404;8.566;2024-02-15T05:02:37;5.25;;;2.17;;
39242;SDS011;29823;47.404;8.566;2024-02-15T05:05:08;3.63;;;1.87;;
39242;SDS011;29823;47.404;8.566;2024-02-15T05:07:36;5.32;;;2.20;;
39242;SDS011;29823;47.404;8.566;2024-02-15T05:10:07;8.52;;;2.05;;
39242;SDS011;29823;47.404;8.566;2024-02-15T05:12:36;5.18;;;2.55;;
39242;SDS011;29823;47.404;8.566;2024-02-15T05:15:06;5.35;;;2.35;;
39242;SDS011;29823;47.404;8.566;2024-02-15T05:17:39;6.60;;;2.63;;
39242;SDS011;29823;47.404;8.566;2024-02-15T05:20:09;3.10;;;1.90;;
39242;SDS011;29823;47.404;8.566;2024-02-15T05:22:40;5.37;;;1.93;;
39242;SDS011;29823;47.404;8.566;2024-02-15T05:25:15;6.82;;;2.20;;
39242;SDS011;29823;47.404;8.566;2024-02-15T05:27:48;3.60;;;1.92;;
39242;SDS011;29823;47.404;8.566;2024-02-15T05:30:17;4.30;;;2.13;;
39242;SDS011;29823;47.404;8.566;2024-02-15T05:32:45;6.63;;;2.00;;
39242;SDS011;29823;47.404;8.566;2024-02-15T05:35:14;5.55;;;2.22;;
39242;SDS011;29823;47.404;8.566;2024-02-15T05:37:43;6.15;;;2.80;;
39242;SDS011;29823;47.404;8.566;2024-02-15T05:40:12;3.97;;;2.50;;
39242;SDS011;29823;47.404;8.566;2024-02-15T05:42:42;3.55;;;1.85;;
39242;SDS011;29823;47.404;8.566;2024-02-15T05:45:27;7.28;;;2.22;;
39242;SDS011;29823;47.404;8.566;2024-02-15T05:47:59;7.47;;;3.25;;
39242;SDS011;29823;47.404;8.566;2024-02-15T05:50:27;7.75;;;3.05;;
39242;SDS011;29823;47.404;8.566;2024-02-15T05:52:56;4.93;;;2.50;;
39242;SDS011;29823;47.404;8.566;2024-02-15T05:55:25;4.03;;;2.50;;
39242;SDS011;29823;47.404;8.566;2024-02-15T05:57:55;5.95;;;2.70;;
39242;SDS011;29823;47.404;8.566;2024-02-15T06:00:24;5.50;;;2.60;;
39242;SDS011;29823;47.404;8.566;2024-02-15T06:02:52;6.43;;;2.97;;
39242;SDS011;29823;47.404;8.566;2024-02-15T06:05:21;8.25;;;2.80;;
39242;SDS011;29823;47.404;8.566;2024-02-15T06:07:50;5.88;;;3.20;;
39242;SDS011;29823;47.404;8.566;2024-02-15T06:10:18;7.72;;;3.13;;
39242;SDS011;29823;47.404;8.566;2024-02-15T06:12:46;5.07;;;3.05;;
39242;SDS011;29823;47.404;8.566;2024-02-15T06:15:14;12.43;;;3.10;;
39242;SDS011;29823;47.404;8.566;2024-02-15T06:17:44;12.65;;;5.80;;
39242;SDS011;29823;47.404;8.566;2024-02-15T06:20:13;6.95;;;4.10;;
39242;SDS011;29823;47.404;8.566;2024-02-15T06:22:42;6.15;;;3.30;;
39242;SDS011;29823;47.404;8.566;2024-02-15T06:25:10;5.18;;;3.17;;
39242;SDS011;29823;47.404;8.566;2024-02-15T06:27:37;3.72;;;2.70;;
39242;SDS011;29823;47.404;8.566;2024-02-15T06:30:08;3.28;;;2.33;;
39242;SDS011;29823;47.404;8.566;2024-02-15T06:32:54;2.63;;;1.90;;
39242;SDS011;29823;47.404;8.566;2024-02-15T06:35:39;7.07;;;1.83;;
39242;SDS011;29823;47.404;8.566;2024-02-15T06:38:21;3.67;;;1.90;;
39242;SDS011;29823;47.404;8.566;2024-02-15T06:41:06;3.42;;;1.75;;
39242;SDS011;29823;47.404;8.566;2024-02-15T06:43:34;4.68;;;1.75;;
39242;SDS011;29823;47.404;8.566;2024-02-15T06:46:02;4.70;;;1.90;;
39242;SDS011;29823;47.404;8.566;2024-02-15T06:48:34;2.70;;;1.75;;
39242;SDS011;29823;47.404;8.566;2024-02-15T06:51:03;4.05;;;2.03;;
39242;SDS011;29823;47.404;8.566;2024-02-15T06:53:32;3.58;;;1.88;;
39242;SDS011;29823;47.404;8.566;2024-02-15T06:56:00;8.30;;;2.60;;
39242;SDS011;29823;47.404;8.566;2024-02-15T06:58:29;7.60;;;3.05;;
39242;SDS011;29823;47.404;8.566;2024-02-15T07:00:56;7.03;;;2.63;;
39242;SDS011;29823;47.404;8.566;2024-02-15T07:03:24;7.50;;;2.28;;
39242;SDS011;29823;47.404;8.566;2024-02-15T07:05:53;6.28;;;2.47;;
39242;SDS011;29823;47.404;8.566;2024-02-15T07:08:22;4.30;;;2.53;;
39242;SDS011;29823;47.404;8.566;2024-02-15T07:10:51;7.65;;;2.90;;
39242;SDS011;29823;47.404;8.566;2024-02-15T07:13:18;14.30;;;3.92;;
39242;SDS011;29823;47.404;8.566;2024-02-15T07:15:46;11.48;;;3.45;;
39242;SDS011;29823;47.404;8.566;2024-02-15T07:18:15;9.68;;;3.05;;
39242;SDS011;29823;47.404;8.566;2024-02-15T07:20:45;8.27;;;3.30;;
39242;SDS011;29823;47.404;8.566;2024-02-15T07:23:14;10.40;;;2.78;;
39242;SDS011;29823;47.404;8.566;2024-02-15T07:25:41;4.82;;;2.25;;
39242;SDS011;29823;47.404;8.566;2024-02-15T07:28:09;6.63;;;2.10;;
39242;SDS011;29823;47.404;8.566;2024-02-15T07:30:37;4.63;;;2.30;;
39242;SDS011;29823;47.404;8.566;2024-02-15T07:33:04;5.25;;;2.30;;
39242;SDS011;29823;47.404;8.566;2024-02-15T07:35:33;6.35;;;2.90;;
39242;SDS011;29823;47.404;8.566;2024-02-15T07:38:01;8.07;;;2.88;;
39242;SDS011;29823;47.404;8.566;2024-02-15T07:40:33;7.88;;;3.38;;
39242;SDS011;29823;47.404;8.566;2024-02-15T07:43:01;9.90;;;4.00;;
39242;SDS011;29823;47.404;8.566;2024-02-15T07:45:29;11.10;;;4.68;;
39242;SDS011;29823;47.404;8.566;2024-02-15T07:47:58;12.70;;;4.47;;
39242;SDS011;29823;47.404;8.566;2024-02-15T07:50:27;10.45;;;4.47;;
39242;SDS011;29823;47.404;8.566;2024-02-15T07:52:55;8.50;;;4.22;;
39242;SDS011;29823;47.404;8.566;2024-02-15T07:55:23;11.73;;;4.05;;
39242;SDS011;29823;47.404;8.566;2024-02-15T07:57:52;10.32;;;4.22;;
39242;SDS011;29823;47.404;8.566;2024-02-15T08:00:20;12.23;;;3.85;;
39242;SDS011;29823;47.404;8.566;2024-02-15T08:02:48;10.23;;;3.90;;
39242;SDS011;29823;47.404;8.566;2024-02-15T08:05:15;8.25;;;3.63;;
39242;SDS011;29823;47.404;8.566;2024-02-15T08:07:43;10.75;;;3.85;;
39242;SDS011;29823;47.404;8.566;2024-02-15T08:10:11;7.15;;;3.50;;
39242;SDS011;29823;47.404;8.566;2024-02-15T08:12:40;11.52;;;4.13;;
39242;SDS011;29823;47.404;8.566;2024-02-15T08:15:10;9.80;;;3.90;;
39242;SDS011;29823;47.404;8.566;2024-02-15T08:17:39;7.45;;;4.03;;
39242;SDS011;29823;47.404;8.566;2024-02-15T08:20:07;10.98;;;3.65;;
39242;SDS011;29823;47.404;8.566;2024-02-15T08:22:36;10.30;;;5.20;;
39242;SDS011;29823;47.404;8.566;2024-02-15T08:25:06;11.75;;;5.85;;
39242;SDS011;29823;47.404;8.566;2024-02-15T08:27:37;14.15;;;5.30;;
39242;SDS011;29823;47.404;8.566;2024-02-15T08:30:07;9.18;;;4.18;;
39242;SDS011;29823;47.404;8.566;2024-02-15T08:32:38;8.82;;;4.25;;
39242;SDS011;29823;47.404;8.566;2024-02-15T08:35:08;8.35;;;3.92;;
39242;SDS011;29823;47.404;8.566;2024-02-15T08:37:37;12.73;;;3.60;;
39242;SDS011;29823;47.404;8.566;2024-02-15T08:40:05;6.30;;;3.80;;
39242;SDS011;29823;47.404;8.566;2024-02-15T08:42:37;7.75;;;4.13;;
39242;SDS011;29823;47.404;8.566;2024-02-15T08:45:06;20.83;;;4.20;;
39242;SDS011;29823;47.404;8.566;2024-02-15T08:47:36;19.40;;;4.15;;
39242;SDS011;29823;47.404;8.566;2024-02-15T08:50:06;12.02;;;3.63;;
39242;SDS011;29823;47.404;8.566;2024-02-15T08:52:35;6.07;;;2.80;;
39242;SDS011;29823;47.404;8.566;2024-02-15T08:55:05;5.25;;;2.60;;
39242;SDS011;29823;47.404;8.566;2024-02-15T08:57:33;5.60;;;2.88;;
39242;SDS011;29823;47.404;8.566;2024-02-15T09:00:02;10.70;;;2.80;;
39242;SDS011;29823;47.404;8.566;2024-02-15T09:02:32;8.57;;;2.88;;
39242;SDS011;29823;47.404;8.566;2024-02-15T09:05:00;8.82;;;2.60;;
39242;SDS011;29823;47.404;8.566;2024-02-15T09:07:29;5.65;;;2.58;;
39242;SDS011;29823;47.404;8.566;2024-02-15T09:09:57;7.13;;;2.53;;
39242;SDS011;29823;47.404;8.566;2024-02-15T09:12:24;7.43;;;2.90;;
39242;SDS011;29823;47.404;8.566;2024-02-15T09:14:52;9.82;;;2.95;;
39242;SDS011;29823;47.404;8.566;2024-02-15T09:17:20;5.13;;;2.63;;
39242;SDS011;29823;47.404;8.566;2024-02-15T09:19:49;6.80;;;3.22;;
39242;SDS011;29823;47.404;8.566;2024-02-15T09:22:17;11.73;;;2.70;;
39242;SDS011;29823;47.404;8.566;2024-02-15T09:24:47;4.90;;;2.13;;
39242;SDS011;29823;47.404;8.566;2024-02-15T09:27:15;6.75;;;2.92;;
39242;SDS011;29823;47.404;8.566;2024-02-15T09:29:42;7.70;;;2.33;;
39242;SDS011;29823;47.404;8.566;2024-02-15T09:32:10;15.60;;;2.70;;
39242;SDS011;29823;47.404;8.566;2024-02-15T09:34:38;7.45;;;2.53;;
39242;SDS011;29823;47.404;8.566;2024-02-15T09:37:06;4.60;;;2.40;;
39242;SDS011;29823;47.404;8.566;2024-02-15T09:39:34;5.30;;;2.30;;
39242;SDS011;29823;47.404;8.566;2024-02-15T09:42:06;8.30;;;2.58;;
39242;SDS011;29823;47.404;8.566;2024-02-15T09:44:34;4.03;;;2.60;;
39242;SDS011;29823;47.404;8.566;2024-02-15T09:47:02;6.60;;;2.33;;
39242;SDS011;29823;47.404;8.566;2024-02-15T09:49:33;8.25;;;3.00;;
39242;SDS011;29823;47.404;8.566;2024-02-15T09:52:03;3.63;;;2.50;;
39242;SDS011;29823;47.404;8.566;2024-02-15T09:54:30;4.97;;;3.08;;
39242;SDS011;29823;47.404;8.566;2024-02-15T09:57:01;9.20;;;3.17;;
39242;SDS011;29823;47.404;8.566;2024-02-15T09:59:30;7.15;;;3.17;;
39242;SDS011;29823;47.404;8.566;2024-02-15T10:01:58;5.90;;;3.28;;
39242;SDS011;29823;47.404;8.566;2024-02-15T10:04:26;9.70;;;3.22;;
39242;SDS011;29823;47.404;8.566;2024-02-15T10:06:53;8.82;;;2.97;;
39242;SDS011;29823;47.404;8.566;2024-02-15T10:09:28;13.48;;;2.80;;
39242;SDS011;29823;47.404;8.566;2024-02-15T10:11:56;14.65;;;3.58;;
39242;SDS011;29823;47.404;8.566;2024-02-15T10:14:24;9.07;;;3.60;;
39242;SDS011;29823;47.404;8.566;2024-02-15T10:16:53;8.75;;;3.20;;
39242;SDS011;29823;47.404;8.566;2024-02-15T10:19:21;13.10;;;3.20;;
39242;SDS011;29823;47.404;8.566;2024-02-15T10:21:51;8.98;;;3.42;;
39242;SDS011;29823;47.404;8.566;2024-02-15T10:24:21;8.77;;;3.08;;
39242;SDS011;29823;47.404;8.566;2024-02-15T10:26:50;12.57;;;7.53;;
39242;SDS011;29823;47.404;8.566;2024-02-15T10:29:19;10.52;;;4.43;;
39242;SDS011;29823;47.404;8.566;2024-02-15T10:31:54;8.45;;;2.83;;
39242;SDS011;29823;47.404;8.566;2024-02-15T10:34:23;5.30;;;2.63;;
39242;SDS011;29823;47.404;8.566;2024-02-15T10:36:52;5.57;;;2.75;;
39242;SDS011;29823;47.404;8.566;2024-02-15T10:39:19;8.15;;;3.13;;
39242;SDS011;29823;47.404;8.566;2024-02-15T10:41:48;6.97;;;2.72;;
39242;SDS011;29823;47.404;8.566;2024-02-15T10:44:16;15.10;;;6.97;;
39242;SDS011;29823;47.404;8.566;2024-02-15T10:46:45;9.88;;;3.90;;
39242;SDS011;29823;47.404;8.566;2024-02-15T10:51:48;11.65;;;3.28;;
39242;SDS011;29823;47.404;8.566;2024-02-15T10:54:19;6.43;;;3.00;;
39242;SDS011;29823;47.404;8.566;2024-02-15T10:56:52;7.85;;;2.80;;
39242;SDS011;29823;47.404;8.566;2024-02-15T10:59:23;14.70;;;3.08;;
39242;SDS011;29823;47.404;8.566;2024-02-15T11:01:54;11.52;;;3.00;;
39242;SDS011;29823;47.404;8.566;2024-02-15T11:04:24;7.20;;;3.03;;
39242;SDS011;29823;47.404;8.566;2024-02-15T11:06:59;10.80;;;3.10;;
39242;SDS011;29823;47.404;8.566;2024-02-15T11:09:28;5.57;;;2.80;;
39242;SDS011;29823;47.404;8.566;2024-02-15T11:11:56;6.13;;;2.60;;
39242;SDS011;29823;47.404;8.566;2024-02-15T11:14:25;8.90;;;3.17;;
39242;SDS011;29823;47.404;8.566;2024-02-15T11:16:53;11.68;;;2.80;;
39242;SDS011;29823;47.404;8.566;2024-02-15T11:19:41;6.13;;;2.78;;
39242;SDS011;29823;47.404;8.566;2024-02-15T11:22:14;4.13;;;2.55;;
39242;SDS011;29823;47.404;8.566;2024-02-15T11:24:45;8.88;;;2.92;;
39242;SDS011;29823;47.404;8.566;2024-02-15T11:27:23;5.72;;;2.53;;
39242;SDS011;29823;47.404;8.566;2024-02-15T11:29:51;8.07;;;3.45;;
39242;SDS011;29823;47.404;8.566;2024-02-15T11:32:42;6.97;;;2.70;;
39242;SDS011;29823;47.404;8.566;2024-02-15T11:35:16;8.40;;;2.83;;
39242;SDS011;29823;47.404;8.566;2024-02-15T11:37:58;4.82;;;2.80;;
39242;SDS011;29823;47.404;8.566;2024-02-15T11:43:44;5.30;;;2.92;;
39242;SDS011;29823;47.404;8.566;2024-02-15T11:46:06;7.95;;;3.13;;
39242;SDS011;29823;47.404;8.566;2024-02-15T11:48:35;6.28;;;2.63;;
39242;SDS011;29823;47.404;8.566;2024-02-15T11:51:05;5.97;;;3.53;;
39242;SDS011;29823;47.404;8.566;2024-02-15T11:53:35;4.65;;;3.00;;
39242;SDS011;29823;47.404;8.566;2024-02-15T11:56:03;9.23;;;3.03;;
39242;SDS011;29823;47.404;8.566;2024-02-15T11:58:31;4.32;;;2.50;;
39242;SDS011;29823;47.404;8.566;2024-02-15T12:01:08;8.27;;;2.55;;
39242;SDS011;29823;47.404;8.566;2024-02-15T12:03:54;4.97;;;2.28;;
39242;SDS011;29823;47.404;8.566;2024-02-15T12:06:39;5.30;;;2.38;;
39242;SDS011;29823;47.404;8.566;2024-02-15T12:09:26;3.88;;;2.20;;
39242;SDS011;29823;47.404;8.566;2024-02-15T12:12:11;4.00;;;2.30;;
39242;SDS011;29823;47.404;8.566;2024-02-15T12:14:59;5.15;;;2.33;;
39242;SDS011;29823;47.404;8.566;2024-02-15T12:17:45;5.40;;;2.13;;
39242;SDS011;29823;47.404;8.566;2024-02-15T12:20:30;6.15;;;1.88;;
39242;SDS011;29823;47.404;8.566;2024-02-15T12:22:58;7.82;;;2.10;;
39242;SDS011;29823;47.404;8.566;2024-02-15T12:25:28;7.00;;;2.08;;
39242;SDS011;29823;47.404;8.566;2024-02-15T12:28:00;3.65;;;2.05;;
39242;SDS011;29823;47.404;8.566;2024-02-15T12:30:34;6.07;;;2.78;;
39242;SDS011;29823;47.404;8.566;2024-02-15T12:33:10;4.20;;;2.50;;
39242;SDS011;29823;47.404;8.566;2024-02-15T12:35:39;6.28;;;2.20;;
39242;SDS011;29823;47.404;8.566;2024-02-15T12:38:08;4.30;;;2.38;;
39242;SDS011;29823;47.404;8.566;2024-02-15T12:40:39;5.75;;;2.33;;
39242;SDS011;29823;47.404;8.566;2024-02-15T12:43:11;3.67;;;2.53;;
39242;SDS011;29823;47.404;8.566;2024-02-15T12:45:39;6.43;;;2.63;;
39242;SDS011;29823;47.404;8.566;2024-02-15T12:48:08;5.72;;;2.20;;
39242;SDS011;29823;47.404;8.566;2024-02-15T12:50:37;6.20;;;2.17;;
39242;SDS011;29823;47.404;8.566;2024-02-15T12:53:05;5.30;;;2.58;;
39242;SDS011;29823;47.404;8.566;2024-02-15T12:55:34;5.95;;;2.22;;
39242;SDS011;29823;47.404;8.566;2024-02-15T12:58:05;5.00;;;2.38;;
39242;SDS011;29823;47.404;8.566;2024-02-15T13:00:35;2.78;;;2.10;;
39242;SDS011;29823;47.404;8.566;2024-02-15T13:03:07;3.85;;;2.47;;
39242;SDS011;29823;47.404;8.566;2024-02-15T13:05:37;4.57;;;2.13;;
39242;SDS011;29823;47.404;8.566;2024-02-15T13:08:05;5.43;;;2.53;;
39242;SDS011;29823;47.404;8.566;2024-02-15T13:10:37;3.88;;;2.35;;
39242;SDS011;29823;47.404;8.566;2024-02-15T13:13:07;3.83;;;2.20;;
39242;SDS011;29823;47.404;8.566;2024-02-15T13:15:36;8.30;;;2.55;;
39242;SDS011;29823;47.404;8.566;2024-02-15T13:18:05;10.68;;;2.60;;
39242;SDS011;29823;47.404;8.566;2024-02-15T13:20:36;11.20;;;2.45;;
39242;SDS011;29823;47.404;8.566;2024-02-15T13:23:05;6.97;;;2.60;;
39242;SDS011;29823;47.404;8.566;2024-02-15T13:25:36;4.65;;;2.40;;
39242;SDS011;29823;47.404;8.566;2024-02-15T13:28:07;4.22;;;2.35;;
39242;SDS011;29823;47.404;8.566;2024-02-15T13:30:36;4.85;;;2.05;;
39242;SDS011;29823;47.404;8.566;2024-02-15T13:33:05;5.43;;;2.05;;
39242;SDS011;29823;47.404;8.566;2024-02-15T13:35:33;3.97;;;2.25;;
39242;SDS011;29823;47.404;8.566;2024-02-15T13:38:02;8.05;;;3.03;;
39242;SDS011;29823;47.404;8.566;2024-02-15T13:40:30;5.70;;;2.60;;
39242;SDS011;29823;47.404;8.566;2024-02-15T13:42:58;7.68;;;2.38;;
39242;SDS011;29823;47.404;8.566;2024-02-15T13:45:28;6.72;;;2.65;;
39242;SDS011;29823;47.404;8.566;2024-02-15T13:47:59;4.03;;;2.45;;
39242;SDS011;29823;47.404;8.566;2024-02-15T13:50:28;6.43;;;2.60;;
39242;SDS011;29823;47.404;8.566;2024-02-15T13:52:56;5.88;;;2.50;;
39242;SDS011;29823;47.404;8.566;2024-02-15T13:55:25;7.57;;;2.78;;
39242;SDS011;29823;47.404;8.566;2024-02-15T13:57:53;12.68;;;2.63;;
39242;SDS011;29823;47.404;8.566;2024-02-15T14:00:22;11.70;;;3.20;;
39242;SDS011;29823;47.404;8.566;2024-02-15T14:02:51;8.43;;;2.47;;
39242;SDS011;29823;47.404;8.566;2024-02-15T14:05:20;8.05;;;2.72;;
39242;SDS011;29823;47.404;8.566;2024-02-15T14:07:50;8.15;;;2.90;;
39242;SDS011;29823;47.404;8.566;2024-02-15T14:10:20;5.00;;;2.40;;
39242;SDS011;29823;47.404;8.566;2024-02-15T14:12:48;5.80;;;2.60;;
39242;SDS011;29823;47.404;8.566;2024-02-15T14:15:16;5.28;;;2.58;;
39242;SDS011;29823;47.404;8.566;2024-02-15T14:17:44;7.03;;;2.40;;
39242;SDS011;29823;47.404;8.566;2024-02-15T14:20:13;7.35;;;2.67;;
39242;SDS011;29823;47.404;8.566;2024-02-15T14:22:41;4.70;;;2.33;;
39242;SDS011;29823;47.404;8.566;2024-02-15T14:25:10;7.03;;;2.60;;
39242;SDS011;29823;47.404;8.566;2024-02-15T14:27:39;4.22;;;2.50;;
39242;SDS011;29823;47.404;8.566;2024-02-15T14:30:08;12.55;;;3.03;;
39242;SDS011;29823;47.404;8.566;2024-02-15T14:32:53;5.07;;;2.40;;
39242;SDS011;29823;47.404;8.566;2024-02-15T14:35:32;4.05;;;2.38;;
39242;SDS011;29823;47.404;8.566;2024-02-15T14:38:02;5.15;;;3.13;;
39242;SDS011;29823;47.404;8.566;2024-02-15T14:40:33;5.07;;;2.40;;
39242;SDS011;29823;47.404;8.566;2024-02-15T14:43:03;6.17;;;2.77;;
39242;SDS011;29823;47.404;8.566;2024-02-15T14:45:32;7.65;;;2.70;;
39242;SDS011;29823;47.404;8.566;2024-02-15T14:48:01;4.40;;;2.30;;
39242;SDS011;29823;47.404;8.566;2024-02-15T14:50:29;5.10;;;2.53;;
39242;SDS011;29823;47.404;8.566;2024-02-15T14:52:58;4.05;;;2.10;;
39242;SDS011;29823;47.404;8.566;2024-02-15T14:55:26;8.02;;;2.40;;
39242;SDS011;29823;47.404;8.566;2024-02-15T14:57:55;5.13;;;2.38;;
39242;SDS011;29823;47.404;8.566;2024-02-15T15:00:29;4.20;;;2.28;;
39242;SDS011;29823;47.404;8.566;2024-02-15T15:03:03;7.28;;;2.53;;
39242;SDS011;29823;47.404;8.566;2024-02-15T15:05:31;6.00;;;2.92;;
39242;SDS011;29823;47.404;8.566;2024-02-15T15:08:18;5.13;;;2.80;;